sensor_id;sensor_type;location;lat;lon;timestamp;P1;durP1;ratioP1;P2;durP2;ratioP2
77105;SDS011;66057;54.718;18.426;2023-11-19T00:00:34;15.32;;;9.20;;
77105;SDS011;66057;54.718;18.426;2023-11-19T00:03:20;21.00;;;9.77;;
77105;SDS011;66057;54.718;18.426;2023-11-19T00:05:45;19.92;;;14.07;;
77105;SDS011;66057;54.718;18.426;2023-11-19T00:08:11;27.00;;;11.55;;
77105;SDS011;66057;54.718;18.426;2023-11-19T00:10:36;28.23;;;14.93;;
77105;SDS011;66057;54.718;18.426;2023-11-19T00:13:02;29.42;;;16.80;;
77105;SDS011;66057;54.718;18.426;2023-11-19T00:15:28;33.28;;;16.25;;
77105;SDS011;66057;54.718;18.426;2023-11-19T00:17:53;27.75;;;14.85;;
77105;SDS011;66057;54.718;18.426;2023-11-19T00:20:19;30.75;;;17.33;;
77105;SDS011;66057;54.718;18.426;2023-11-19T00:22:47;34.15;;;17.83;;
77105;SDS011;66057;54.718;18.426;2023-11-19T00:25:13;34.17;;;16.23;;
77105;SDS011;66057;54.718;18.426;2023-11-19T00:27:39;36.53;;;17.65;;
77105;SDS011;66057;54.718;18.426;2023-11-19T00:30:05;45.03;;;20.52;;
77105;SDS011;66057;54.718;18.426;2023-11-19T00:32:31;41.65;;;18.13;;
77105;SDS011;66057;54.718;18.426;2023-11-19T00:34:57;25.45;;;12.88;;
77105;SDS011;66057;54.718;18.426;2023-11-19T00:37:22;37.00;;;16.75;;
77105;SDS011;66057;54.718;18.426;2023-11-19T00:39:48;25.55;;;13.88;;
77105;SDS011;66057;54.718;18.426;2023-11-19T00:42:14;22.38;;;13.20;;
77105;SDS011;66057;54.718;18.426;2023-11-19T00:44:39;29.73;;;13.40;;
77105;SDS011;66057;54.718;18.426;2023-11-19T00:47:06;33.50;;;16.33;;
77105;SDS011;66057;54.718;18.426;2023-11-19T00:49:32;41.25;;;19.63;;
77105;SDS011;66057;54.718;18.426;2023-11-19T00:51:58;19.27;;;13.93;;
77105;SDS011;66057;54.718;18.426;2023-11-19T00:54:24;19.55;;;9.27;;
77105;SDS011;66057;54.718;18.426;2023-11-19T00:56:54;20.92;;;12.35;;
77105;SDS011;66057;54.718;18.426;2023-11-19T00:59:19;31.75;;;15.75;;
77105;SDS011;66057;54.718;18.426;2023-11-19T01:01:45;38.25;;;15.55;;
77105;SDS011;66057;54.718;18.426;2023-11-19T01:04:10;34.47;;;15.65;;
77105;SDS011;66057;54.718;18.426;2023-11-19T01:06:36;28.73;;;12.32;;
77105;SDS011;66057;54.718;18.426;2023-11-19T01:09:02;32.10;;;16.17;;
77105;SDS011;66057;54.718;18.426;2023-11-19T01:11:28;26.45;;;13.63;;
77105;SDS011;66057;54.718;18.426;2023-11-19T01:13:53;29.40;;;12.90;;
77105;SDS011;66057;54.718;18.426;2023-11-19T01:16:19;24.70;;;13.98;;
77105;SDS011;66057;54.718;18.426;2023-11-19T01:18:46;38.80;;;16.27;;
77105;SDS011;66057;54.718;18.426;2023-11-19T01:21:12;34.40;;;16.58;;
77105;SDS011;66057;54.718;18.426;2023-11-19T01:26:05;26.75;;;13.50;;
77105;SDS011;66057;54.718;18.426;2023-11-19T01:28:30;23.13;;;11.02;;
77105;SDS011;66057;54.718;18.426;2023-11-19T01:30:56;22.88;;;12.02;;
77105;SDS011;66057;54.718;18.426;2023-11-19T01:33:22;36.05;;;14.98;;
77105;SDS011;66057;54.718;18.426;2023-11-19T01:35:48;32.00;;;14.55;;
77105;SDS011;66057;54.718;18.426;2023-11-19T01:38:13;33.95;;;15.40;;
77105;SDS011;66057;54.718;18.426;2023-11-19T01:40:39;27.83;;;12.23;;
77105;SDS011;66057;54.718;18.426;2023-11-19T01:43:04;29.65;;;14.38;;
77105;SDS011;66057;54.718;18.426;2023-11-19T01:45:30;26.33;;;12.40;;
77105;SDS011;66057;54.718;18.426;2023-11-19T01:47:56;27.30;;;13.48;;
77105;SDS011;66057;54.718;18.426;2023-11-19T01:50:25;26.90;;;13.30;;
77105;SDS011;66057;54.718;18.426;2023-11-19T01:52:52;28.10;;;14.05;;
77105;SDS011;66057;54.718;18.426;2023-11-19T01:55:18;30.73;;;12.77;;
77105;SDS011;66057;54.718;18.426;2023-11-19T01:57:44;29.23;;;13.48;;
77105;SDS011;66057;54.718;18.426;2023-11-19T02:00:10;23.92;;;11.38;;
77105;SDS011;66057;54.718;18.426;2023-11-19T02:02:37;23.25;;;12.13;;
77105;SDS011;66057;54.718;18.426;2023-11-19T02:05:05;25.42;;;12.40;;
77105;SDS011;66057;54.718;18.426;2023-11-19T02:07:31;21.10;;;11.57;;
77105;SDS011;66057;54.718;18.426;2023-11-19T02:09:57;29.95;;;12.63;;
77105;SDS011;66057;54.718;18.426;2023-11-19T02:12:25;25.38;;;11.20;;
77105;SDS011;66057;54.718;18.426;2023-11-19T02:14:53;19.25;;;9.27;;
77105;SDS011;66057;54.718;18.426;2023-11-19T02:19:51;25.60;;;12.02;;
77105;SDS011;66057;54.718;18.426;2023-11-19T02:22:17;19.05;;;11.25;;
77105;SDS011;66057;54.718;18.426;2023-11-19T02:24:42;29.38;;;14.90;;
77105;SDS011;66057;54.718;18.426;2023-11-19T02:27:10;33.10;;;12.27;;
77105;SDS011;66057;54.718;18.426;2023-11-19T02:29:40;33.83;;;14.27;;
77105;SDS011;66057;54.718;18.426;2023-11-19T02:32:06;28.63;;;13.65;;
77105;SDS011;66057;54.718;18.426;2023-11-19T02:34:34;28.02;;;12.95;;
77105;SDS011;66057;54.718;18.426;2023-11-19T02:37:00;27.83;;;12.60;;
77105;SDS011;66057;54.718;18.426;2023-11-19T02:39:26;32.70;;;14.07;;
77105;SDS011;66057;54.718;18.426;2023-11-19T02:41:51;27.52;;;13.57;;
77105;SDS011;66057;54.718;18.426;2023-11-19T02:44:18;23.17;;;11.18;;
77105;SDS011;66057;54.718;18.426;2023-11-19T02:46:44;27.20;;;11.32;;
77105;SDS011;66057;54.718;18.426;2023-11-19T02:49:09;21.77;;;9.73;;
77105;SDS011;66057;54.718;18.426;2023-11-19T02:51:35;21.50;;;11.23;;
77105;SDS011;66057;54.718;18.426;2023-11-19T02:54:01;22.63;;;13.05;;
77105;SDS011;66057;54.718;18.426;2023-11-19T02:56:28;20.40;;;9.65;;
77105;SDS011;66057;54.718;18.426;2023-11-19T02:59:00;27.27;;;11.88;;
77105;SDS011;66057;54.718;18.426;2023-11-19T03:01:32;25.85;;;10.13;;
77105;SDS011;66057;54.718;18.426;2023-11-19T03:04:00;21.73;;;11.15;;
77105;SDS011;66057;54.718;18.426;2023-11-19T03:06:27;27.92;;;12.77;;
77105;SDS011;66057;54.718;18.426;2023-11-19T03:08:54;25.70;;;10.27;;
77105;SDS011;66057;54.718;18.426;2023-11-19T03:11:19;26.85;;;10.27;;
77105;SDS011;66057;54.718;18.426;2023-11-19T03:13:45;23.05;;;9.75;;
77105;SDS011;66057;54.718;18.426;2023-11-19T03:16:12;24.50;;;9.00;;
77105;SDS011;66057;54.718;18.426;2023-11-19T03:18:38;33.55;;;13.82;;
77105;SDS011;66057;54.718;18.426;2023-11-19T03:21:05;28.83;;;10.73;;
77105;SDS011;66057;54.718;18.426;2023-11-19T03:23:31;23.63;;;12.25;;
77105;SDS011;66057;54.718;18.426;2023-11-19T03:25:56;22.50;;;10.82;;
77105;SDS011;66057;54.718;18.426;2023-11-19T03:28:22;11.35;;;6.90;;
77105;SDS011;66057;54.718;18.426;2023-11-19T03:30:47;20.02;;;10.48;;
77105;SDS011;66057;54.718;18.426;2023-11-19T03:33:13;16.30;;;7.93;;
77105;SDS011;66057;54.718;18.426;2023-11-19T03:35:38;17.17;;;8.13;;
77105;SDS011;66057;54.718;18.426;2023-11-19T03:38:06;18.80;;;8.50;;
77105;SDS011;66057;54.718;18.426;2023-11-19T03:40:32;19.83;;;10.65;;
77105;SDS011;66057;54.718;18.426;2023-11-19T03:42:57;11.70;;;7.65;;
77105;SDS011;66057;54.718;18.426;2023-11-19T03:45:26;14.63;;;8.68;;
77105;SDS011;66057;54.718;18.426;2023-11-19T03:47:52;17.45;;;7.85;;
77105;SDS011;66057;54.718;18.426;2023-11-19T03:50:17;16.33;;;8.05;;
77105;SDS011;66057;54.718;18.426;2023-11-19T03:52:46;8.63;;;6.63;;
77105;SDS011;66057;54.718;18.426;2023-11-19T03:55:11;9.48;;;6.15;;
77105;SDS011;66057;54.718;18.426;2023-11-19T03:57:38;13.05;;;6.70;;
77105;SDS011;66057;54.718;18.426;2023-11-19T04:00:04;12.25;;;6.60;;
77105;SDS011;66057;54.718;18.426;2023-11-19T04:02:36;14.25;;;6.63;;
77105;SDS011;66057;54.718;18.426;2023-11-19T04:05:01;7.03;;;3.60;;
77105;SDS011;66057;54.718;18.426;2023-11-19T04:07:28;10.48;;;5.40;;
77105;SDS011;66057;54.718;18.426;2023-11-19T04:09:54;12.20;;;7.18;;
77105;SDS011;66057;54.718;18.426;2023-11-19T04:12:20;9.77;;;5.25;;
77105;SDS011;66057;54.718;18.426;2023-11-19T04:14:45;11.32;;;5.55;;
77105;SDS011;66057;54.718;18.426;2023-11-19T04:17:11;15.77;;;6.95;;
77105;SDS011;66057;54.718;18.426;2023-11-19T04:19:36;13.05;;;7.07;;
77105;SDS011;66057;54.718;18.426;2023-11-19T04:22:02;11.30;;;5.30;;
77105;SDS011;66057;54.718;18.426;2023-11-19T04:24:27;15.88;;;6.25;;
77105;SDS011;66057;54.718;18.426;2023-11-19T04:26:53;11.27;;;5.05;;
77105;SDS011;66057;54.718;18.426;2023-11-19T04:29:19;10.75;;;6.03;;
77105;SDS011;66057;54.718;18.426;2023-11-19T04:31:45;9.63;;;6.15;;
77105;SDS011;66057;54.718;18.426;2023-11-19T04:34:11;11.48;;;5.78;;
77105;SDS011;66057;54.718;18.426;2023-11-19T04:36:36;15.82;;;7.13;;
77105;SDS011;66057;54.718;18.426;2023-11-19T04:39:02;8.65;;;4.38;;
77105;SDS011;66057;54.718;18.426;2023-11-19T04:41:30;8.68;;;4.43;;
77105;SDS011;66057;54.718;18.426;2023-11-19T04:43:56;8.50;;;4.70;;
77105;SDS011;66057;54.718;18.426;2023-11-19T04:46:22;8.38;;;5.22;;
77105;SDS011;66057;54.718;18.426;2023-11-19T04:48:49;14.07;;;4.65;;
77105;SDS011;66057;54.718;18.426;2023-11-19T04:51:15;10.50;;;5.15;;
77105;SDS011;66057;54.718;18.426;2023-11-19T04:53:41;11.63;;;5.47;;
77105;SDS011;66057;54.718;18.426;2023-11-19T04:56:10;6.72;;;4.85;;
77105;SDS011;66057;54.718;18.426;2023-11-19T04:58:37;10.73;;;5.68;;
77105;SDS011;66057;54.718;18.426;2023-11-19T05:01:04;6.68;;;4.55;;
77105;SDS011;66057;54.718;18.426;2023-11-19T05:03:30;10.85;;;6.68;;
77105;SDS011;66057;54.718;18.426;2023-11-19T05:05:57;15.82;;;6.93;;
77105;SDS011;66057;54.718;18.426;2023-11-19T05:08:23;15.40;;;6.93;;
77105;SDS011;66057;54.718;18.426;2023-11-19T05:10:48;13.15;;;7.35;;
77105;SDS011;66057;54.718;18.426;2023-11-19T05:13:14;12.63;;;4.80;;
77105;SDS011;66057;54.718;18.426;2023-11-19T05:15:40;8.07;;;4.82;;
77105;SDS011;66057;54.718;18.426;2023-11-19T05:18:06;10.90;;;5.88;;
77105;SDS011;66057;54.718;18.426;2023-11-19T05:20:32;11.32;;;6.45;;
77105;SDS011;66057;54.718;18.426;2023-11-19T05:22:58;14.00;;;6.30;;
77105;SDS011;66057;54.718;18.426;2023-11-19T05:25:28;13.27;;;6.63;;
77105;SDS011;66057;54.718;18.426;2023-11-19T05:27:56;14.38;;;7.53;;
77105;SDS011;66057;54.718;18.426;2023-11-19T05:30:22;11.07;;;5.38;;
77105;SDS011;66057;54.718;18.426;2023-11-19T05:32:48;12.40;;;6.85;;
77105;SDS011;66057;54.718;18.426;2023-11-19T05:35:13;17.60;;;8.30;;
77105;SDS011;66057;54.718;18.426;2023-11-19T05:37:39;9.73;;;5.82;;
77105;SDS011;66057;54.718;18.426;2023-11-19T05:40:05;13.68;;;8.15;;
77105;SDS011;66057;54.718;18.426;2023-11-19T05:42:38;14.02;;;5.68;;
77105;SDS011;66057;54.718;18.426;2023-11-19T05:45:04;12.48;;;6.28;;
77105;SDS011;66057;54.718;18.426;2023-11-19T05:47:29;17.30;;;8.18;;
77105;SDS011;66057;54.718;18.426;2023-11-19T05:49:55;11.35;;;5.63;;
77105;SDS011;66057;54.718;18.426;2023-11-19T05:52:21;14.88;;;7.07;;
77105;SDS011;66057;54.718;18.426;2023-11-19T05:54:48;13.95;;;7.57;;
77105;SDS011;66057;54.718;18.426;2023-11-19T05:57:17;8.55;;;5.15;;
77105;SDS011;66057;54.718;18.426;2023-11-19T05:59:48;10.85;;;5.95;;
77105;SDS011;66057;54.718;18.426;2023-11-19T06:02:13;9.55;;;6.05;;
77105;SDS011;66057;54.718;18.426;2023-11-19T06:04:39;8.45;;;4.97;;
77105;SDS011;66057;54.718;18.426;2023-11-19T06:07:05;5.40;;;4.22;;
77105;SDS011;66057;54.718;18.426;2023-11-19T06:09:30;7.70;;;4.43;;
77105;SDS011;66057;54.718;18.426;2023-11-19T06:11:59;5.20;;;3.80;;
77105;SDS011;66057;54.718;18.426;2023-11-19T06:14:27;11.30;;;6.00;;
77105;SDS011;66057;54.718;18.426;2023-11-19T06:16:52;7.72;;;4.20;;
77105;SDS011;66057;54.718;18.426;2023-11-19T06:19:18;8.18;;;4.60;;
77105;SDS011;66057;54.718;18.426;2023-11-19T06:21:44;5.90;;;4.53;;
77105;SDS011;66057;54.718;18.426;2023-11-19T06:24:09;14.10;;;5.95;;
77105;SDS011;66057;54.718;18.426;2023-11-19T06:26:35;13.23;;;6.38;;
77105;SDS011;66057;54.718;18.426;2023-11-19T06:29:00;9.38;;;5.22;;
77105;SDS011;66057;54.718;18.426;2023-11-19T06:31:26;8.25;;;4.95;;
77105;SDS011;66057;54.718;18.426;2023-11-19T06:33:51;3.33;;;2.35;;
77105;SDS011;66057;54.718;18.426;2023-11-19T06:36:17;11.27;;;5.57;;
77105;SDS011;66057;54.718;18.426;2023-11-19T06:38:43;6.03;;;4.05;;
77105;SDS011;66057;54.718;18.426;2023-11-19T06:41:08;5.68;;;5.13;;
77105;SDS011;66057;54.718;18.426;2023-11-19T06:43:37;8.68;;;6.43;;
77105;SDS011;66057;54.718;18.426;2023-11-19T06:46:02;6.25;;;5.28;;
77105;SDS011;66057;54.718;18.426;2023-11-19T06:48:33;10.45;;;4.97;;
77105;SDS011;66057;54.718;18.426;2023-11-19T06:50:59;10.23;;;7.15;;
77105;SDS011;66057;54.718;18.426;2023-11-19T06:53:25;9.85;;;5.45;;
77105;SDS011;66057;54.718;18.426;2023-11-19T06:55:53;5.45;;;3.97;;
77105;SDS011;66057;54.718;18.426;2023-11-19T06:58:19;10.23;;;6.05;;
77105;SDS011;66057;54.718;18.426;2023-11-19T07:00:45;8.18;;;5.55;;
77105;SDS011;66057;54.718;18.426;2023-11-19T07:03:12;14.43;;;5.60;;
77105;SDS011;66057;54.718;18.426;2023-11-19T07:05:39;6.22;;;4.28;;
77105;SDS011;66057;54.718;18.426;2023-11-19T07:08:05;15.65;;;6.25;;
77105;SDS011;66057;54.718;18.426;2023-11-19T07:10:32;18.63;;;7.38;;
77105;SDS011;66057;54.718;18.426;2023-11-19T07:12:58;13.82;;;6.15;;
77105;SDS011;66057;54.718;18.426;2023-11-19T07:15:23;14.13;;;6.70;;
77105;SDS011;66057;54.718;18.426;2023-11-19T07:17:49;9.90;;;5.53;;
77105;SDS011;66057;54.718;18.426;2023-11-19T07:20:14;19.17;;;8.18;;
77105;SDS011;66057;54.718;18.426;2023-11-19T07:22:43;15.20;;;8.30;;
77105;SDS011;66057;54.718;18.426;2023-11-19T07:25:12;13.05;;;6.60;;
77105;SDS011;66057;54.718;18.426;2023-11-19T07:27:38;9.18;;;4.00;;
77105;SDS011;66057;54.718;18.426;2023-11-19T07:30:04;17.80;;;8.50;;
77105;SDS011;66057;54.718;18.426;2023-11-19T07:32:30;14.15;;;7.22;;
77105;SDS011;66057;54.718;18.426;2023-11-19T07:34:56;18.75;;;8.07;;
77105;SDS011;66057;54.718;18.426;2023-11-19T07:37:23;17.23;;;8.52;;
77105;SDS011;66057;54.718;18.426;2023-11-19T07:39:48;11.18;;;5.03;;
77105;SDS011;66057;54.718;18.426;2023-11-19T07:42:14;22.55;;;9.10;;
77105;SDS011;66057;54.718;18.426;2023-11-19T07:44:39;8.77;;;5.72;;
77105;SDS011;66057;54.718;18.426;2023-11-19T07:47:05;13.93;;;7.38;;
77105;SDS011;66057;54.718;18.426;2023-11-19T07:49:31;7.85;;;5.40;;
77105;SDS011;66057;54.718;18.426;2023-11-19T07:51:57;15.88;;;10.07;;
77105;SDS011;66057;54.718;18.426;2023-11-19T07:54:22;18.55;;;10.88;;
77105;SDS011;66057;54.718;18.426;2023-11-19T07:56:48;10.60;;;5.55;;
77105;SDS011;66057;54.718;18.426;2023-11-19T07:59:14;12.38;;;8.30;;
77105;SDS011;66057;54.718;18.426;2023-11-19T08:01:40;10.45;;;5.72;;
77105;SDS011;66057;54.718;18.426;2023-11-19T08:04:05;10.57;;;4.57;;
77105;SDS011;66057;54.718;18.426;2023-11-19T08:06:31;12.40;;;5.80;;
77105;SDS011;66057;54.718;18.426;2023-11-19T08:08:57;10.57;;;4.07;;
77105;SDS011;66057;54.718;18.426;2023-11-19T08:11:23;8.55;;;4.88;;
77105;SDS011;66057;54.718;18.426;2023-11-19T08:13:48;13.85;;;6.72;;
77105;SDS011;66057;54.718;18.426;2023-11-19T08:16:14;8.80;;;4.63;;
77105;SDS011;66057;54.718;18.426;2023-11-19T08:18:41;10.15;;;6.10;;
77105;SDS011;66057;54.718;18.426;2023-11-19T08:21:07;8.18;;;5.05;;
77105;SDS011;66057;54.718;18.426;2023-11-19T08:23:32;12.63;;;6.15;;
77105;SDS011;66057;54.718;18.426;2023-11-19T08:25:58;12.10;;;6.50;;
77105;SDS011;66057;54.718;18.426;2023-11-19T08:28:23;9.43;;;5.30;;
77105;SDS011;66057;54.718;18.426;2023-11-19T08:30:49;10.35;;;5.85;;
77105;SDS011;66057;54.718;18.426;2023-11-19T08:33:15;9.75;;;5.60;;
77105;SDS011;66057;54.718;18.426;2023-11-19T08:35:41;7.55;;;3.85;;
77105;SDS011;66057;54.718;18.426;2023-11-19T08:38:06;7.45;;;4.95;;
77105;SDS011;66057;54.718;18.426;2023-11-19T08:40:32;9.43;;;5.25;;
77105;SDS011;66057;54.718;18.426;2023-11-19T08:42:58;12.43;;;6.03;;
77105;SDS011;66057;54.718;18.426;2023-11-19T08:45:24;12.50;;;7.45;;
77105;SDS011;66057;54.718;18.426;2023-11-19T08:47:50;18.63;;;8.68;;
77105;SDS011;66057;54.718;18.426;2023-11-19T08:50:16;26.10;;;10.60;;
77105;SDS011;66057;54.718;18.426;2023-11-19T08:52:41;11.05;;;5.63;;
77105;SDS011;66057;54.718;18.426;2023-11-19T08:55:07;10.70;;;4.85;;
77105;SDS011;66057;54.718;18.426;2023-11-19T08:57:35;9.45;;;3.72;;
77105;SDS011;66057;54.718;18.426;2023-11-19T09:00:01;11.43;;;5.60;;
77105;SDS011;66057;54.718;18.426;2023-11-19T09:02:28;9.18;;;5.72;;
77105;SDS011;66057;54.718;18.426;2023-11-19T09:04:53;10.25;;;5.57;;
77105;SDS011;66057;54.718;18.426;2023-11-19T09:07:19;13.25;;;6.22;;
77105;SDS011;66057;54.718;18.426;2023-11-19T09:09:45;11.13;;;5.53;;
77105;SDS011;66057;54.718;18.426;2023-11-19T09:12:12;9.13;;;5.30;;
77105;SDS011;66057;54.718;18.426;2023-11-19T09:14:39;9.80;;;4.03;;
77105;SDS011;66057;54.718;18.426;2023-11-19T09:17:05;9.40;;;5.55;;
77105;SDS011;66057;54.718;18.426;2023-11-19T09:19:32;11.82;;;6.20;;
77105;SDS011;66057;54.718;18.426;2023-11-19T09:21:57;8.20;;;5.05;;
77105;SDS011;66057;54.718;18.426;2023-11-19T09:24:23;8.80;;;5.63;;
77105;SDS011;66057;54.718;18.426;2023-11-19T09:26:49;14.45;;;5.47;;
77105;SDS011;66057;54.718;18.426;2023-11-19T09:29:15;6.15;;;4.18;;
77105;SDS011;66057;54.718;18.426;2023-11-19T09:31:41;7.10;;;3.40;;
77105;SDS011;66057;54.718;18.426;2023-11-19T09:34:07;10.38;;;5.75;;
77105;SDS011;66057;54.718;18.426;2023-11-19T09:36:33;13.15;;;5.60;;
77105;SDS011;66057;54.718;18.426;2023-11-19T09:38:58;12.65;;;6.05;;
77105;SDS011;66057;54.718;18.426;2023-11-19T09:41:26;6.25;;;3.47;;
77105;SDS011;66057;54.718;18.426;2023-11-19T09:43:53;10.77;;;4.13;;
77105;SDS011;66057;54.718;18.426;2023-11-19T09:46:19;6.85;;;4.35;;
77105;SDS011;66057;54.718;18.426;2023-11-19T09:48:45;10.23;;;5.50;;
77105;SDS011;66057;54.718;18.426;2023-11-19T09:51:11;10.43;;;5.05;;
77105;SDS011;66057;54.718;18.426;2023-11-19T09:53:39;8.13;;;6.07;;
77105;SDS011;66057;54.718;18.426;2023-11-19T09:56:05;11.45;;;5.82;;
77105;SDS011;66057;54.718;18.426;2023-11-19T09:58:31;13.15;;;7.57;;
77105;SDS011;66057;54.718;18.426;2023-11-19T10:00:57;8.80;;;5.43;;
77105;SDS011;66057;54.718;18.426;2023-11-19T10:03:25;12.70;;;6.43;;
77105;SDS011;66057;54.718;18.426;2023-11-19T10:05:52;10.15;;;4.22;;
77105;SDS011;66057;54.718;18.426;2023-11-19T10:08:18;4.68;;;2.50;;
77105;SDS011;66057;54.718;18.426;2023-11-19T10:10:44;4.97;;;3.75;;
77105;SDS011;66057;54.718;18.426;2023-11-19T10:13:09;7.13;;;4.55;;
77105;SDS011;66057;54.718;18.426;2023-11-19T10:15:35;8.68;;;5.18;;
77105;SDS011;66057;54.718;18.426;2023-11-19T10:18:02;8.20;;;4.75;;
77105;SDS011;66057;54.718;18.426;2023-11-19T10:20:34;7.50;;;4.13;;
77105;SDS011;66057;54.718;18.426;2023-11-19T10:23:00;7.10;;;4.38;;
77105;SDS011;66057;54.718;18.426;2023-11-19T10:25:26;15.50;;;6.97;;
77105;SDS011;66057;54.718;18.426;2023-11-19T10:27:53;8.27;;;5.47;;
77105;SDS011;66057;54.718;18.426;2023-11-19T10:35:31;2.58;;;1.85;;
77105;SDS011;66057;54.718;18.426;2023-11-19T10:37:58;5.95;;;3.03;;
77105;SDS011;66057;54.718;18.426;2023-11-19T10:43:01;3.45;;;2.67;;
77105;SDS011;66057;54.718;18.426;2023-11-19T10:45:27;9.10;;;4.90;;
77105;SDS011;66057;54.718;18.426;2023-11-19T10:47:55;8.35;;;4.50;;
77105;SDS011;66057;54.718;18.426;2023-11-19T10:50:22;9.75;;;3.95;;
77105;SDS011;66057;54.718;18.426;2023-11-19T10:52:52;11.48;;;6.50;;
77105;SDS011;66057;54.718;18.426;2023-11-19T10:55:20;9.43;;;4.18;;
77105;SDS011;66057;54.718;18.426;2023-11-19T10:57:50;12.38;;;5.47;;
77105;SDS011;66057;54.718;18.426;2023-11-19T11:00:16;12.60;;;5.82;;
77105;SDS011;66057;54.718;18.426;2023-11-19T11:02:44;11.60;;;6.32;;
77105;SDS011;66057;54.718;18.426;2023-11-19T11:05:12;7.47;;;4.20;;
77105;SDS011;66057;54.718;18.426;2023-11-19T11:07:38;6.65;;;5.68;;
77105;SDS011;66057;54.718;18.426;2023-11-19T11:10:06;7.38;;;5.32;;
77105;SDS011;66057;54.718;18.426;2023-11-19T11:12:34;9.13;;;6.32;;
77105;SDS011;66057;54.718;18.426;2023-11-19T11:15:01;12.23;;;6.72;;
77105;SDS011;66057;54.718;18.426;2023-11-19T11:17:29;9.18;;;5.50;;
77105;SDS011;66057;54.718;18.426;2023-11-19T11:19:56;12.88;;;7.20;;
77105;SDS011;66057;54.718;18.426;2023-11-19T11:22:22;10.30;;;5.80;;
77105;SDS011;66057;54.718;18.426;2023-11-19T11:27:19;10.73;;;6.32;;
77105;SDS011;66057;54.718;18.426;2023-11-19T11:39:56;8.10;;;5.40;;
77105;SDS011;66057;54.718;18.426;2023-11-19T11:45:01;8.50;;;5.65;;
77105;SDS011;66057;54.718;18.426;2023-11-19T11:50:12;12.73;;;6.07;;
77105;SDS011;66057;54.718;18.426;2023-11-19T11:55:06;11.05;;;5.95;;
77105;SDS011;66057;54.718;18.426;2023-11-19T11:57:37;13.90;;;6.18;;
77105;SDS011;66057;54.718;18.426;2023-11-19T12:00:03;16.30;;;9.38;;
77105;SDS011;66057;54.718;18.426;2023-11-19T12:02:30;11.70;;;7.90;;
77105;SDS011;66057;54.718;18.426;2023-11-19T12:04:56;17.50;;;8.18;;
77105;SDS011;66057;54.718;18.426;2023-11-19T12:07:23;10.88;;;6.28;;
77105;SDS011;66057;54.718;18.426;2023-11-19T12:09:53;17.38;;;8.25;;
77105;SDS011;66057;54.718;18.426;2023-11-19T12:12:23;14.95;;;6.90;;
77105;SDS011;66057;54.718;18.426;2023-11-19T12:15:09;14.45;;;7.97;;
77105;SDS011;66057;54.718;18.426;2023-11-19T12:17:36;21.30;;;8.77;;
77105;SDS011;66057;54.718;18.426;2023-11-19T12:20:02;13.50;;;7.55;;
77105;SDS011;66057;54.718;18.426;2023-11-19T12:22:29;11.15;;;6.75;;
77105;SDS011;66057;54.718;18.426;2023-11-19T12:24:54;9.70;;;5.55;;
77105;SDS011;66057;54.718;18.426;2023-11-19T12:27:20;15.73;;;8.98;;
77105;SDS011;66057;54.718;18.426;2023-11-19T12:29:48;15.00;;;8.13;;
77105;SDS011;66057;54.718;18.426;2023-11-19T12:32:14;12.68;;;6.53;;
77105;SDS011;66057;54.718;18.426;2023-11-19T12:34:40;15.10;;;7.68;;
77105;SDS011;66057;54.718;18.426;2023-11-19T12:37:05;15.55;;;7.60;;
77105;SDS011;66057;54.718;18.426;2023-11-19T12:39:31;17.35;;;8.85;;
77105;SDS011;66057;54.718;18.426;2023-11-19T12:41:57;17.88;;;9.27;;
77105;SDS011;66057;54.718;18.426;2023-11-19T12:47:08;22.50;;;11.23;;
77105;SDS011;66057;54.718;18.426;2023-11-19T12:49:36;18.40;;;7.90;;
77105;SDS011;66057;54.718;18.426;2023-11-19T12:52:02;17.38;;;9.98;;
77105;SDS011;66057;54.718;18.426;2023-11-19T12:54:36;18.52;;;9.10;;
77105;SDS011;66057;54.718;18.426;2023-11-19T12:57:02;17.48;;;7.95;;
77105;SDS011;66057;54.718;18.426;2023-11-19T12:59:27;19.17;;;8.65;;
77105;SDS011;66057;54.718;18.426;2023-11-19T13:01:57;20.77;;;9.77;;
77105;SDS011;66057;54.718;18.426;2023-11-19T13:04:22;16.40;;;8.63;;
77105;SDS011;66057;54.718;18.426;2023-11-19T13:09:24;14.70;;;6.55;;
77105;SDS011;66057;54.718;18.426;2023-11-19T13:11:50;17.80;;;8.75;;
77105;SDS011;66057;54.718;18.426;2023-11-19T13:14:17;17.63;;;8.48;;
77105;SDS011;66057;54.718;18.426;2023-11-19T13:16:42;16.35;;;8.60;;
77105;SDS011;66057;54.718;18.426;2023-11-19T13:19:08;20.23;;;7.22;;
77105;SDS011;66057;54.718;18.426;2023-11-19T13:21:37;11.68;;;5.55;;
77105;SDS011;66057;54.718;18.426;2023-11-19T13:24:03;20.25;;;8.77;;
77105;SDS011;66057;54.718;18.426;2023-11-19T13:26:29;17.35;;;9.30;;
77105;SDS011;66057;54.718;18.426;2023-11-19T13:28:54;10.73;;;5.80;;
77105;SDS011;66057;54.718;18.426;2023-11-19T13:31:20;20.65;;;10.35;;
77105;SDS011;66057;54.718;18.426;2023-11-19T13:33:45;11.52;;;7.65;;
77105;SDS011;66057;54.718;18.426;2023-11-19T13:36:11;20.02;;;12.70;;
77105;SDS011;66057;54.718;18.426;2023-11-19T13:38:37;26.27;;;11.20;;
77105;SDS011;66057;54.718;18.426;2023-11-19T13:41:03;20.33;;;9.27;;
77105;SDS011;66057;54.718;18.426;2023-11-19T13:43:29;16.95;;;8.68;;
77105;SDS011;66057;54.718;18.426;2023-11-19T13:45:58;16.58;;;8.30;;
77105;SDS011;66057;54.718;18.426;2023-11-19T13:48:24;19.55;;;8.05;;
77105;SDS011;66057;54.718;18.426;2023-11-19T13:50:50;19.20;;;12.15;;
77105;SDS011;66057;54.718;18.426;2023-11-19T13:53:16;18.73;;;11.63;;
77105;SDS011;66057;54.718;18.426;2023-11-19T13:55:42;17.27;;;8.10;;
77105;SDS011;66057;54.718;18.426;2023-11-19T13:58:08;16.38;;;10.88;;
77105;SDS011;66057;54.718;18.426;2023-11-19T14:00:33;19.10;;;8.20;;
77105;SDS011;66057;54.718;18.426;2023-11-19T14:02:59;20.67;;;8.93;;
77105;SDS011;66057;54.718;18.426;2023-11-19T14:05:25;17.67;;;9.73;;
77105;SDS011;66057;54.718;18.426;2023-11-19T14:07:52;10.38;;;6.82;;
77105;SDS011;66057;54.718;18.426;2023-11-19T14:10:20;18.42;;;12.32;;
77105;SDS011;66057;54.718;18.426;2023-11-19T14:12:45;21.60;;;8.75;;
77105;SDS011;66057;54.718;18.426;2023-11-19T14:15:11;18.70;;;10.48;;
77105;SDS011;66057;54.718;18.426;2023-11-19T14:17:39;17.45;;;10.30;;
77105;SDS011;66057;54.718;18.426;2023-11-19T14:20:05;18.90;;;9.00;;
77105;SDS011;66057;54.718;18.426;2023-11-19T14:22:44;12.90;;;7.85;;
77105;SDS011;66057;54.718;18.426;2023-11-19T14:25:10;16.98;;;9.80;;
77105;SDS011;66057;54.718;18.426;2023-11-19T14:27:39;17.90;;;10.23;;
77105;SDS011;66057;54.718;18.426;2023-11-19T14:30:06;23.35;;;9.20;;
77105;SDS011;66057;54.718;18.426;2023-11-19T14:32:36;16.52;;;7.25;;
77105;SDS011;66057;54.718;18.426;2023-11-19T14:35:03;11.30;;;7.60;;
77105;SDS011;66057;54.718;18.426;2023-11-19T14:37:29;22.83;;;10.27;;
77105;SDS011;66057;54.718;18.426;2023-11-19T14:39:55;19.13;;;9.63;;
77105;SDS011;66057;54.718;18.426;2023-11-19T14:42:20;21.02;;;9.85;;
77105;SDS011;66057;54.718;18.426;2023-11-19T14:44:46;23.80;;;11.13;;
77105;SDS011;66057;54.718;18.426;2023-11-19T14:47:11;20.15;;;9.57;;
77105;SDS011;66057;54.718;18.426;2023-11-19T14:49:37;17.17;;;7.47;;
77105;SDS011;66057;54.718;18.426;2023-11-19T14:52:06;17.40;;;7.20;;
77105;SDS011;66057;54.718;18.426;2023-11-19T14:54:31;19.02;;;8.63;;